createdAt,value
2023-05-06T00:02:29.648Z,2.16
2023-05-06T00:07:31.966Z,2.11
2023-05-06T00:12:34.173Z,2.03
2023-05-06T00:17:36.373Z,1.92
2023-05-06T00:22:38.691Z,1.90
2023-05-06T00:27:40.800Z,1.83
2023-05-06T00:32:43.006Z,1.75
2023-05-06T00:37:49.186Z,1.69
2023-05-06T00:42:51.359Z,1.47
2023-05-06T00:47:53.810Z,1.53
2023-05-06T00:52:58.183Z,1.50
2023-05-06T00:58:01.155Z,1.44
2023-05-06T01:03:03.466Z,1.38
2023-05-06T01:08:11.690Z,1.33
2023-05-06T01:13:36.721Z,1.42
2023-05-06T01:18:39.173Z,1.21
2023-05-06T01:23:58.492Z,1.27
2023-05-06T01:29:02.497Z,1.15
2023-05-06T01:34:11.166Z,1.17
2023-05-06T01:39:18.959Z,1.15
2023-05-06T01:44:23.542Z,1.09
2023-05-06T01:49:27.604Z,1.08
2023-05-06T01:54:29.674Z,1.10
2023-05-06T01:59:31.683Z,1.13
2023-05-06T02:04:33.978Z,1.15
2023-05-06T02:09:36.314Z,1.16
2023-05-06T02:14:38.998Z,1.16
2023-05-06T02:19:41.438Z,1.20
2023-05-06T02:24:43.562Z,1.39
2023-05-06T02:29:46.824Z,1.73
2023-05-06T02:34:48.934Z,1.87
2023-05-06T02:39:51.060Z,1.93
2023-05-06T02:44:53.066Z,1.89
2023-05-06T02:49:55.302Z,1.90
2023-05-06T02:54:57.418Z,1.89
2023-05-06T02:59:59.631Z,2.03
2023-05-06T03:05:04.560Z,2.25
2023-05-06T03:10:08.139Z,2.42
2023-05-06T03:15:12.924Z,2.46
2023-05-06T03:20:15.665Z,2.49
2023-05-06T03:25:24.376Z,2.49
2023-05-06T03:30:27.612Z,2.47
2023-05-06T03:35:33.627Z,2.64
2023-05-06T03:40:36.702Z,2.88
2023-05-06T03:45:39.321Z,3.09
2023-05-06T03:50:42.236Z,3.24
2023-05-06T03:55:44.462Z,3.26
2023-05-06T04:00:47.870Z,3.22
2023-05-06T04:05:51.007Z,3.25
2023-05-06T04:10:57.750Z,3.49
2023-05-06T04:16:04.280Z,3.76
2023-05-06T04:21:13.670Z,4.14
2023-05-06T04:26:18.358Z,4.45
2023-05-06T04:31:21.749Z,4.58
2023-05-06T04:36:25.850Z,4.75
2023-05-06T04:41:48.954Z,4.86
2023-05-06T04:46:56.181Z,4.90
2023-05-06T04:51:58.430Z,4.94
2023-05-06T04:57:01.817Z,5.21
2023-05-06T05:02:04.958Z,5.69
2023-05-06T05:07:07.707Z,6.25
2023-05-06T05:12:10.901Z,6.61
2023-05-06T05:17:17.248Z,7.69
2023-05-06T05:22:21.447Z,8.23
2023-05-06T05:27:23.867Z,8.49
2023-05-06T05:32:27.039Z,8.33
2023-05-06T05:37:29.125Z,8.05
2023-05-06T05:42:33.821Z,7.92
2023-05-06T05:47:41.045Z,7.60
2023-05-06T05:52:43.552Z,7.73
2023-05-06T05:57:46.169Z,7.72
2023-05-06T06:02:48.790Z,7.84
2023-05-06T06:07:55.006Z,7.88
2023-05-06T06:12:59.254Z,7.72
2023-05-06T06:18:04.350Z,7.55
2023-05-06T06:23:06.833Z,7.37
2023-05-06T06:28:10.184Z,7.46
2023-05-06T06:33:12.687Z,7.98
2023-05-06T06:38:15.607Z,8.33
2023-05-06T06:43:19.939Z,8.56
2023-05-06T06:48:31.823Z,8.63
2023-05-06T06:53:33.839Z,8.60
2023-05-06T06:58:35.838Z,8.67
2023-05-06T07:03:37.734Z,9.56
2023-05-06T07:08:39.750Z,9.32
2023-05-06T07:13:41.877Z,9.29
2023-05-06T07:18:43.779Z,9.90
2023-05-06T07:23:46.042Z,9.24
2023-05-06T07:28:48.210Z,9.26
2023-05-06T07:33:50.480Z,9.32
2023-05-06T07:38:52.438Z,10.21
2023-05-06T07:43:54.507Z,9.88
2023-05-06T07:48:56.615Z,10.53
2023-05-06T07:53:58.642Z,9.92
2023-05-06T07:59:00.756Z,10.66
2023-05-06T08:04:02.950Z,12.21
2023-05-06T08:09:05.467Z,14.42
2023-05-06T08:14:07.557Z,14.65
2023-05-06T08:19:09.406Z,14.72
2023-05-06T08:24:13.677Z,13.82
2023-05-06T08:29:16.013Z,14.56
2023-05-06T08:34:20.289Z,14.33
2023-05-06T08:39:22.268Z,16.47
2023-05-06T08:44:25.424Z,18.15
2023-05-06T08:49:27.890Z,18.06
2023-05-06T08:54:33.495Z,17.23
2023-05-06T08:59:36.369Z,19.45
2023-05-06T09:04:38.713Z,22.66
2023-05-06T09:09:40.967Z,23.33
2023-05-06T09:14:43.374Z,22.22
2023-05-06T09:19:45.475Z,20.58
2023-05-06T09:24:53.113Z,19.76
2023-05-06T09:30:09.441Z,18.80
2023-05-06T09:35:13.692Z,17.87
2023-05-06T09:40:15.953Z,18.30
2023-05-06T09:45:18.091Z,18.36
2023-05-06T09:50:22.223Z,18.00
2023-05-06T09:55:27.238Z,18.61
2023-05-06T10:00:31.450Z,21.77
2023-05-06T10:05:34.135Z,21.33
2023-05-06T10:10:37.960Z,19.03
2023-05-06T10:15:41.153Z,17.67
2023-05-06T10:20:44.468Z,18.42
2023-05-06T10:25:49.396Z,20.47
2023-05-06T10:30:53.309Z,22.30
2023-05-06T10:36:24.063Z,21.83
2023-05-06T10:41:28.444Z,18.52
2023-05-06T10:46:30.859Z,15.98
2023-05-06T10:51:33.899Z,15.82
2023-05-06T10:56:40.127Z,19.33
2023-05-06T11:01:44.450Z,21.04
2023-05-06T11:06:49.318Z,19.34
2023-05-06T11:11:52.013Z,16.39
2023-05-06T11:16:56.926Z,14.53
2023-05-06T11:22:01.202Z,14.04
2023-05-06T11:27:03.377Z,14.56
2023-05-06T11:32:05.743Z,15.47
2023-05-06T11:37:08.520Z,17.19
2023-05-06T11:42:10.561Z,17.93
2023-05-06T11:47:12.554Z,17.00
2023-05-06T11:52:14.590Z,16.44
2023-05-06T11:57:16.597Z,14.04
2023-05-06T12:02:18.576Z,13.64
2023-05-06T12:07:20.851Z,12.36
2023-05-06T12:12:24.185Z,12.14
2023-05-06T12:17:26.540Z,11.96
2023-05-06T12:22:28.672Z,11.91
2023-05-06T12:27:31.473Z,13.19
2023-05-06T12:32:33.497Z,13.50
2023-05-06T12:37:35.689Z,13.68
2023-05-06T12:42:37.888Z,13.59
2023-05-06T12:47:40.106Z,13.79
2023-05-06T12:52:45.259Z,13.86
2023-05-06T12:57:48.474Z,13.32
2023-05-06T13:02:50.733Z,12.99
2023-05-06T13:07:54.082Z,13.04
2023-05-06T13:12:56.219Z,13.02
2023-05-06T13:17:58.415Z,13.41
2023-05-06T13:23:00.328Z,15.31
2023-05-06T13:28:02.608Z,15.03
2023-05-06T13:33:05.264Z,13.86
2023-05-06T13:38:07.594Z,12.77
2023-05-06T13:43:10.131Z,11.92
2023-05-06T13:48:13.173Z,11.54
2023-05-06T13:53:15.588Z,11.68
2023-05-06T13:58:17.859Z,11.93
2023-05-06T14:03:20.013Z,11.96
2023-05-06T14:08:21.920Z,12.39
2023-05-06T14:13:24.157Z,11.46
2023-05-06T14:18:29.593Z,11.37
2023-05-06T14:23:32.612Z,11.35
2023-05-06T14:28:34.615Z,11.11
2023-05-06T14:33:37.724Z,11.38
2023-05-06T14:38:39.734Z,10.46
2023-05-06T14:43:41.669Z,10.64
2023-05-06T14:48:44.553Z,9.61
2023-05-06T14:53:46.851Z,9.19
2023-05-06T14:58:48.872Z,9.08
2023-05-06T15:03:53.224Z,9.06
2023-05-06T15:08:55.480Z,9.17
2023-05-06T15:13:57.402Z,9.92
2023-05-06T15:18:59.501Z,9.53
2023-05-06T15:24:01.806Z,9.43
2023-05-06T15:29:04.037Z,9.26
2023-05-06T15:34:09.842Z,9.31
2023-05-06T15:39:12.869Z,9.37
2023-05-06T15:44:16.206Z,9.34
2023-05-06T15:49:47.487Z,9.29
2023-05-06T15:54:41.165Z,9.24
2023-05-06T15:59:43.364Z,8.93
2023-05-06T16:04:45.545Z,8.42
2023-05-06T16:09:47.765Z,8.21
2023-05-06T16:14:49.639Z,8.61
2023-05-06T16:19:51.597Z,8.09
2023-05-06T16:24:53.468Z,8.32
2023-05-06T16:29:55.820Z,7.67
2023-05-06T16:34:59.434Z,7.15
2023-05-06T16:40:01.692Z,6.97
2023-05-06T16:45:07.636Z,6.80
2023-05-06T16:50:10.747Z,6.70
2023-05-06T16:55:13.041Z,6.62
2023-05-06T17:00:16.582Z,6.55
2023-05-06T17:05:20.640Z,6.48
2023-05-06T17:10:29.206Z,6.39
2023-05-06T17:15:31.439Z,6.23
2023-05-06T17:20:38.050Z,6.08
2023-05-06T17:25:49.991Z,5.95
2023-05-06T17:30:51.971Z,6.27
2023-05-06T17:35:53.931Z,5.93
2023-05-06T17:40:55.823Z,6.23
2023-05-06T17:45:57.907Z,5.75
2023-05-06T17:51:01.878Z,5.56
2023-05-06T17:56:04.713Z,5.40
2023-05-06T18:01:06.808Z,5.25
2023-05-06T18:06:08.869Z,5.09
2023-05-06T18:11:11.040Z,5.32
2023-05-06T18:16:13.107Z,4.89
2023-05-06T18:21:15.578Z,4.76
2023-05-06T18:26:35.001Z,4.67
2023-05-06T18:31:40.638Z,4.59
2023-05-06T18:36:42.848Z,4.50
2023-05-06T18:41:44.902Z,4.44
2023-05-06T18:46:46.951Z,4.38
2023-05-06T18:51:49.046Z,4.33
2023-05-06T18:56:54.938Z,4.63
2023-05-06T19:01:56.996Z,4.25
2023-05-06T19:06:59.100Z,4.18
2023-05-06T19:12:01.111Z,4.02
2023-05-06T19:17:04.766Z,4.03
2023-05-06T19:22:07.009Z,3.96
2023-05-06T19:27:09.177Z,3.87
2023-05-06T19:32:11.309Z,3.83
2023-05-06T19:37:13.402Z,3.74
2023-05-06T19:42:15.913Z,3.68
2023-05-06T19:47:17.984Z,3.61
2023-05-06T19:52:20.072Z,3.53
2023-05-06T19:57:22.219Z,3.48
2023-05-06T20:02:24.470Z,3.44
2023-05-06T20:07:26.670Z,3.39
2023-05-06T20:12:29.053Z,3.32
2023-05-06T20:17:31.156Z,3.29
2023-05-06T20:22:33.170Z,3.23
2023-05-06T20:27:35.364Z,3.18
2023-05-06T20:32:39.074Z,3.19
2023-05-06T20:37:41.467Z,3.09
2023-05-06T20:42:43.518Z,3.05
2023-05-06T20:47:45.726Z,3.01
2023-05-06T20:52:47.841Z,2.93
2023-05-06T20:57:50.096Z,2.91
2023-05-06T21:02:52.336Z,2.87
2023-05-06T21:07:54.511Z,2.84
2023-05-06T21:12:56.584Z,2.79
2023-05-06T21:17:58.737Z,2.77
2023-05-06T21:23:00.971Z,2.71
2023-05-06T21:28:05.553Z,2.67
2023-05-06T21:33:10.994Z,2.61
2023-05-06T21:38:13.131Z,2.56
2023-05-06T21:43:17.957Z,2.54
2023-05-06T21:48:20.039Z,2.47
2023-05-06T21:53:22.058Z,2.43
2023-05-06T21:58:24.132Z,2.40
2023-05-06T22:03:27.786Z,2.39
2023-05-06T22:08:30.118Z,2.29
2023-05-06T22:13:32.351Z,2.26
2023-05-06T22:18:36.098Z,2.23
2023-05-06T22:23:40.680Z,2.20
2023-05-06T22:28:42.705Z,2.17
2023-05-06T22:33:44.787Z,2.12
2023-05-06T22:38:47.186Z,2.10
2023-05-06T22:43:49.173Z,2.08
2023-05-06T22:48:51.286Z,1.95
2023-05-06T22:53:53.398Z,2.01
2023-05-06T22:58:55.424Z,1.93
2023-05-06T23:03:59.072Z,1.94
2023-05-06T23:09:02.249Z,1.86
2023-05-06T23:14:04.680Z,1.77
2023-05-06T23:19:06.816Z,1.61
2023-05-06T23:24:09.070Z,1.70
2023-05-06T23:29:11.139Z,1.65
2023-05-06T23:34:13.304Z,1.62
2023-05-06T23:39:15.442Z,1.57
2023-05-06T23:44:17.547Z,1.53
2023-05-06T23:49:19.783Z,1.52
2023-05-06T23:54:21.836Z,1.46
2023-05-06T23:59:23.903Z,1.43
